createdAt,value
2018-12-27T00:00:48.442Z,0
2018-12-27T00:01:50.482Z,0
2018-12-27T00:02:56.642Z,0
2018-12-27T00:03:58.682Z,0
2018-12-27T00:05:00.761Z,0
2018-12-27T00:06:02.808Z,0
2018-12-27T00:07:04.841Z,0
2018-12-27T00:08:07.054Z,0
2018-12-27T00:09:09.511Z,0
2018-12-27T00:10:11.879Z,0
2018-12-27T00:11:13.930Z,0
2018-12-27T00:12:16.258Z,0
2018-12-27T00:13:18.298Z,0
2018-12-27T00:14:20.337Z,0
2018-12-27T00:15:22.663Z,0
2018-12-27T00:16:24.700Z,0
2018-12-27T00:17:26.733Z,0
2018-12-27T00:18:29.454Z,0
2018-12-27T00:19:31.638Z,0
2018-12-27T00:20:33.674Z,0
2018-12-27T00:21:35.835Z,0
2018-12-27T00:22:38.037Z,0
2018-12-27T00:23:40.338Z,0
2018-12-27T00:24:42.392Z,0
2018-12-27T00:25:44.761Z,0
2018-12-27T00:26:47.121Z,0
2018-12-27T00:27:49.449Z,0
2018-12-27T00:28:51.504Z,0
2018-12-27T00:29:53.918Z,0
2018-12-27T00:30:55.952Z,0
2018-12-27T00:31:58.034Z,0
2018-12-27T00:33:04.964Z,0
2018-12-27T00:34:07.409Z,0
2018-12-27T00:35:09.475Z,0
2018-12-27T00:36:11.528Z,0
2018-12-27T00:37:13.574Z,0
2018-12-27T00:38:15.622Z,0
2018-12-27T00:39:17.684Z,0
2018-12-27T00:40:19.722Z,0
2018-12-27T00:41:22.037Z,0
2018-12-27T00:42:24.090Z,0
2018-12-27T00:43:26.219Z,0
2018-12-27T00:44:28.546Z,0
2018-12-27T00:45:30.602Z,0
2018-12-27T00:46:32.666Z,0
2018-12-27T00:47:34.710Z,0
2018-12-27T00:48:36.764Z,0
2018-12-27T00:49:38.811Z,0
2018-12-27T00:50:40.846Z,0
2018-12-27T00:51:42.952Z,0
2018-12-27T00:52:45.004Z,0
2018-12-27T00:53:47.032Z,0
2018-12-27T00:54:49.079Z,0
2018-12-27T00:55:51.116Z,0
2018-12-27T00:56:53.211Z,0
2018-12-27T00:57:55.256Z,0
2018-12-27T00:58:57.283Z,0
2018-12-27T00:59:59.707Z,0
2018-12-27T01:01:01.748Z,0
2018-12-27T01:02:03.794Z,0
2018-12-27T01:03:13.324Z,0
2018-12-27T01:04:15.377Z,0
2018-12-27T01:05:18.009Z,0
2018-12-27T01:06:20.047Z,0
2018-12-27T01:07:22.107Z,0
2018-12-27T01:08:24.138Z,0
2018-12-27T01:09:26.193Z,0
2018-12-27T01:10:28.228Z,0
2018-12-27T01:11:30.253Z,0
2018-12-27T01:12:32.302Z,0
2018-12-27T01:13:34.339Z,0
2018-12-27T01:14:36.382Z,0
2018-12-27T01:15:38.460Z,0
2018-12-27T01:16:40.809Z,0
2018-12-27T01:17:42.843Z,0
2018-12-27T01:18:45.178Z,0
2018-12-27T01:19:47.213Z,0
2018-12-27T01:20:49.262Z,0
2018-12-27T01:21:51.573Z,0
2018-12-27T01:22:53.617Z,0
2018-12-27T01:23:55.659Z,0
2018-12-27T01:24:58.077Z,0
2018-12-27T01:26:00.120Z,0
2018-12-27T01:27:02.462Z,0
2018-12-27T01:28:04.507Z,0
2018-12-27T01:29:06.560Z,0
2018-12-27T01:30:08.605Z,0
2018-12-27T01:31:10.656Z,0
2018-12-27T01:32:12.693Z,0
2018-12-27T01:33:20.176Z,0
2018-12-27T01:34:22.534Z,0
2018-12-27T01:35:24.590Z,0
2018-12-27T01:36:26.643Z,0
2018-12-27T01:37:28.978Z,0
2018-12-27T01:38:31.033Z,0
2018-12-27T01:39:33.375Z,0
2018-12-27T01:40:35.428Z,0
2018-12-27T01:41:37.527Z,0
2018-12-27T01:42:39.570Z,0
2018-12-27T01:43:41.605Z,0
2018-12-27T01:44:43.660Z,0
2018-12-27T01:45:45.697Z,0
2018-12-27T01:46:47.761Z,0
2018-12-27T01:47:49.787Z,0
2018-12-27T01:48:51.918Z,0
2018-12-27T01:49:53.950Z,0
2018-12-27T01:50:55.993Z,0
2018-12-27T01:51:58.037Z,0
2018-12-27T01:53:00.085Z,0
2018-12-27T01:54:02.148Z,0
2018-12-27T01:55:04.182Z,0
2018-12-27T01:56:06.237Z,0
2018-12-27T01:57:08.551Z,0
2018-12-27T01:58:10.596Z,0
2018-12-27T01:59:12.926Z,0
2018-12-27T02:00:14.977Z,0
2018-12-27T02:01:17.021Z,0
2018-12-27T02:02:19.059Z,0
2018-12-27T02:03:27.834Z,0
2018-12-27T02:04:29.908Z,0
2018-12-27T02:05:31.948Z,0
2018-12-27T02:06:34.007Z,0
2018-12-27T02:07:36.063Z,0
2018-12-27T02:08:38.109Z,0
2018-12-27T02:09:40.163Z,0
2018-12-27T02:10:42.607Z,0
2018-12-27T02:11:44.647Z,0
2018-12-27T02:12:46.750Z,0
2018-12-27T02:13:48.784Z,0
2018-12-27T02:14:50.844Z,0
2018-12-27T02:15:52.903Z,0
2018-12-27T02:16:54.946Z,0
2018-12-27T02:17:56.984Z,0
2018-12-27T02:18:59.033Z,0
2018-12-27T02:20:01.148Z,0
2018-12-27T02:21:03.196Z,0
2018-12-27T02:22:05.241Z,0
2018-12-27T02:23:07.298Z,0
2018-12-27T02:24:09.418Z,0
2018-12-27T02:25:11.473Z,0
2018-12-27T02:26:13.896Z,0
2018-12-27T02:27:15.944Z,0
2018-12-27T02:28:18.004Z,0
2018-12-27T02:29:20.052Z,0
2018-12-27T02:30:22.693Z,0
2018-12-27T02:31:25.039Z,0
2018-12-27T02:32:27.099Z,0
2018-12-27T02:33:36.865Z,0
2018-12-27T02:34:38.935Z,0
2018-12-27T02:35:41.272Z,0
2018-12-27T02:36:43.699Z,0
2018-12-27T02:37:45.760Z,0
2018-12-27T02:38:47.810Z,0
2018-12-27T02:39:50.123Z,0
2018-12-27T02:40:52.551Z,0
2018-12-27T02:41:54.603Z,0
2018-12-27T02:42:56.957Z,0
2018-12-27T02:43:59.009Z,0
2018-12-27T02:45:01.157Z,0
2018-12-27T02:46:03.191Z,0
2018-12-27T02:47:05.246Z,0
2018-12-27T02:48:07.415Z,0
2018-12-27T02:49:09.460Z,0
2018-12-27T02:50:11.506Z,0
2018-12-27T02:51:13.556Z,0
2018-12-27T02:52:15.896Z,0
2018-12-27T02:53:17.990Z,0
2018-12-27T02:54:20.618Z,0
2018-12-27T02:55:22.786Z,0
2018-12-27T02:56:24.825Z,0
2018-12-27T02:57:26.871Z,0
2018-12-27T02:58:28.921Z,0
2018-12-27T02:59:30.976Z,0
2018-12-27T03:00:33.410Z,0
2018-12-27T03:01:35.752Z,0
2018-12-27T03:02:38.467Z,0
2018-12-27T03:03:45.577Z,0
2018-12-27T03:04:48.191Z,0
2018-12-27T03:05:50.242Z,0
2018-12-27T03:06:52.275Z,0
2018-12-27T03:07:54.327Z,0
2018-12-27T03:08:56.667Z,0
2018-12-27T03:09:58.744Z,0
2018-12-27T03:11:01.083Z,0
2018-12-27T03:12:03.142Z,0
2018-12-27T03:13:05.242Z,0
2018-12-27T03:14:07.293Z,0
2018-12-27T03:15:09.363Z,0
2018-12-27T03:16:11.412Z,0
2018-12-27T03:17:14.397Z,0
2018-12-27T03:18:16.435Z,0
2018-12-27T03:19:18.764Z,0
2018-12-27T03:20:21.234Z,0
2018-12-27T03:21:23.351Z,0
2018-12-27T03:22:25.392Z,0
2018-12-27T03:23:27.451Z,0
2018-12-27T03:24:29.800Z,0
2018-12-27T03:25:31.841Z,0
2018-12-27T03:26:34.850Z,0
2018-12-27T03:27:37.285Z,0
2018-12-27T03:28:39.320Z,0
2018-12-27T03:29:41.368Z,0
2018-12-27T03:30:43.458Z,0
2018-12-27T03:31:46.240Z,0
2018-12-27T03:32:48.862Z,0
2018-12-27T03:33:54.561Z,0
2018-12-27T03:34:56.604Z,0
2018-12-27T03:35:58.657Z,0
2018-12-27T03:37:00.983Z,0
2018-12-27T03:38:03.036Z,0
2018-12-27T03:39:05.086Z,0
2018-12-27T03:40:07.122Z,0
2018-12-27T03:41:09.165Z,0
2018-12-27T03:42:11.489Z,0
2018-12-27T03:43:13.542Z,0
2018-12-27T03:44:15.880Z,0
2018-12-27T03:45:17.932Z,0
2018-12-27T03:46:19.968Z,0
2018-12-27T03:47:22.011Z,0
2018-12-27T03:48:24.345Z,0
2018-12-27T03:49:27.011Z,0
2018-12-27T03:50:29.345Z,0
2018-12-27T03:51:31.414Z,0
2018-12-27T03:52:33.462Z,0
2018-12-27T03:53:35.893Z,0
2018-12-27T03:54:38.320Z,0
2018-12-27T03:55:40.763Z,0
2018-12-27T03:56:42.810Z,0
2018-12-27T03:57:44.884Z,0
2018-12-27T03:58:47.240Z,0
2018-12-27T03:59:49.283Z,0
2018-12-27T04:00:51.633Z,0
2018-12-27T04:01:53.671Z,0
2018-12-27T04:02:55.721Z,0
2018-12-27T04:04:03.485Z,0
2018-12-27T04:05:05.535Z,0
2018-12-27T04:06:07.954Z,0
2018-12-27T04:07:10.093Z,0
2018-12-27T04:08:12.808Z,0
2018-12-27T04:09:14.863Z,0
2018-12-27T04:10:16.900Z,0
2018-12-27T04:11:19.047Z,0
2018-12-27T04:12:21.088Z,0
2018-12-27T04:13:23.146Z,0
2018-12-27T04:14:25.213Z,0
2018-12-27T04:15:27.326Z,0
2018-12-27T04:16:29.373Z,0
2018-12-27T04:17:31.711Z,0
2018-12-27T04:18:33.787Z,0
2018-12-27T04:19:36.125Z,0
2018-12-27T04:20:38.161Z,0
2018-12-27T04:21:40.226Z,0
2018-12-27T04:22:42.563Z,0
2018-12-27T04:23:44.607Z,0
2018-12-27T04:24:46.649Z,0
2018-12-27T04:25:48.983Z,0
2018-12-27T04:26:51.040Z,0
2018-12-27T04:27:53.077Z,0
2018-12-27T04:28:55.692Z,0
2018-12-27T04:29:57.780Z,0
2018-12-27T04:31:00.406Z,0
2018-12-27T04:32:02.472Z,0
2018-12-27T04:33:04.518Z,0
2018-12-27T04:34:11.288Z,0
2018-12-27T04:35:13.335Z,0
2018-12-27T04:36:15.394Z,0
2018-12-27T04:37:17.821Z,0
2018-12-27T04:38:19.869Z,0
2018-12-27T04:39:21.938Z,0
2018-12-27T04:40:24.285Z,0
2018-12-27T04:41:26.620Z,0
2018-12-27T04:42:29.037Z,0
2018-12-27T04:43:31.075Z,0
2018-12-27T04:44:33.119Z,0
2018-12-27T04:45:35.449Z,0
2018-12-27T04:46:37.777Z,0
2018-12-27T04:47:39.857Z,0
2018-12-27T04:48:41.914Z,0
2018-12-27T04:49:44.330Z,0
2018-12-27T04:50:46.364Z,0
2018-12-27T04:51:48.796Z,0
2018-12-27T04:52:51.618Z,0
2018-12-27T04:53:53.661Z,0
2018-12-27T04:54:55.702Z,0
2018-12-27T04:55:58.032Z,0
2018-12-27T04:57:00.358Z,0
2018-12-27T04:58:02.677Z,0
2018-12-27T04:59:04.727Z,0
2018-12-27T05:00:07.461Z,0
2018-12-27T05:01:09.524Z,0
2018-12-27T05:02:11.558Z,0
2018-12-27T05:03:13.590Z,0
2018-12-27T05:04:19.767Z,0
2018-12-27T05:05:22.091Z,0
2018-12-27T05:06:24.131Z,0
2018-12-27T05:07:26.157Z,0
2018-12-27T05:08:28.193Z,0
2018-12-27T05:09:30.253Z,0
2018-12-27T05:10:32.305Z,0
2018-12-27T05:11:34.362Z,0
2018-12-27T05:12:36.400Z,0
2018-12-27T05:13:38.722Z,0
2018-12-27T05:14:40.906Z,0
2018-12-27T05:15:42.937Z,0
2018-12-27T05:16:44.982Z,0
2018-12-27T05:17:47.009Z,0
2018-12-27T05:18:49.112Z,0
2018-12-27T05:19:51.157Z,0
2018-12-27T05:20:53.231Z,0
2018-12-27T05:21:55.270Z,0
2018-12-27T05:22:57.609Z,0
2018-12-27T05:23:59.670Z,0
2018-12-27T05:25:01.718Z,0
2018-12-27T05:26:03.775Z,0
2018-12-27T05:27:06.093Z,0
2018-12-27T05:28:08.142Z,0
2018-12-27T05:29:10.219Z,0
2018-12-27T05:30:12.250Z,0
2018-12-27T05:31:14.290Z,0
2018-12-27T05:32:16.328Z,0
2018-12-27T05:33:18.373Z,0
2018-12-27T05:34:27.645Z,0
2018-12-27T05:35:29.714Z,0
2018-12-27T05:36:32.075Z,0
2018-12-27T05:37:34.424Z,0
2018-12-27T05:38:36.758Z,0
2018-12-27T05:39:38.795Z,0
2018-12-27T05:40:40.844Z,0
2018-12-27T05:41:42.892Z,0
2018-12-27T05:42:45.312Z,0
2018-12-27T05:43:47.738Z,0
2018-12-27T05:44:49.780Z,0
2018-12-27T05:45:52.112Z,0
2018-12-27T05:46:54.169Z,0
2018-12-27T05:47:56.575Z,0
2018-12-27T05:48:58.621Z,0
2018-12-27T05:50:00.659Z,0
2018-12-27T05:51:02.705Z,0
2018-12-27T05:52:04.758Z,0
2018-12-27T05:53:06.792Z,0
2018-12-27T05:54:08.846Z,0
2018-12-27T05:55:10.876Z,0
2018-12-27T05:56:12.919Z,0
2018-12-27T05:57:14.960Z,0
2018-12-27T05:58:17.022Z,0
2018-12-27T05:59:19.071Z,0
2018-12-27T06:00:21.099Z,0
2018-12-27T06:01:23.142Z,0
2018-12-27T06:02:25.190Z,0
2018-12-27T06:03:27.237Z,0
2018-12-27T06:04:35.430Z,0
2018-12-27T06:05:37.480Z,0
2018-12-27T06:06:39.519Z,0
2018-12-27T06:07:41.566Z,0
2018-12-27T06:08:43.611Z,0
2018-12-27T06:09:45.665Z,0
2018-12-27T06:10:47.719Z,0
2018-12-27T06:11:49.756Z,0
2018-12-27T06:12:51.815Z,0
2018-12-27T06:13:54.130Z,0
2018-12-27T06:14:56.185Z,0
2018-12-27T06:15:58.222Z,0
2018-12-27T06:17:00.265Z,0
2018-12-27T06:18:02.307Z,0
2018-12-27T06:19:04.339Z,0
2018-12-27T06:20:06.382Z,0
2018-12-27T06:21:08.436Z,0
2018-12-27T06:22:10.498Z,0
2018-12-27T06:23:12.537Z,0
2018-12-27T06:24:14.609Z,0
2018-12-27T06:25:17.333Z,0
2018-12-27T06:26:19.391Z,0
2018-12-27T06:27:21.893Z,0
2018-12-27T06:28:23.939Z,0
2018-12-27T06:29:26.091Z,0
2018-12-27T06:30:28.149Z,0
2018-12-27T06:31:30.191Z,0
2018-12-27T06:32:32.536Z,0
2018-12-27T06:33:34.959Z,0
2018-12-27T06:34:42.826Z,0
2018-12-27T06:35:44.892Z,0
2018-12-27T06:36:46.944Z,0
2018-12-27T06:37:48.988Z,0
2018-12-27T06:38:51.041Z,0
2018-12-27T06:39:53.082Z,0
2018-12-27T06:40:55.130Z,0
2018-12-27T06:41:57.173Z,0
2018-12-27T06:42:59.276Z,0
2018-12-27T06:44:01.323Z,0
2018-12-27T06:45:03.752Z,0
2018-12-27T06:46:05.789Z,0
2018-12-27T06:47:07.825Z,0
2018-12-27T06:48:09.856Z,0
2018-12-27T06:49:12.615Z,0
2018-12-27T06:50:15.066Z,0
2018-12-27T06:51:17.109Z,0
2018-12-27T06:52:19.442Z,0
2018-12-27T06:53:21.491Z,0
2018-12-27T06:54:23.600Z,0
2018-12-27T06:55:25.643Z,0
2018-12-27T06:56:27.705Z,0
2018-12-27T06:57:29.765Z,0
2018-12-27T06:58:39.117Z,0
2018-12-27T06:59:41.153Z,0
2018-12-27T07:00:43.212Z,0
2018-12-27T07:01:45.267Z,0
2018-12-27T07:02:47.323Z,0
2018-12-27T07:03:49.372Z,0
2018-12-27T07:04:51.704Z,0
2018-12-27T07:05:54.042Z,0
2018-12-27T07:06:56.480Z,0
2018-12-27T07:07:58.835Z,0
2018-12-27T07:09:00.899Z,0
2018-12-27T07:10:02.955Z,0
2018-12-27T07:11:04.978Z,0
2018-12-27T07:12:07.033Z,0
2018-12-27T07:13:09.466Z,0
2018-12-27T07:14:11.510Z,0
2018-12-27T07:15:13.578Z,0
2018-12-27T07:16:15.733Z,0
2018-12-27T07:17:18.070Z,0
2018-12-27T07:18:20.409Z,0
2018-12-27T07:19:22.729Z,0
2018-12-27T07:20:24.781Z,0
2018-12-27T07:21:26.821Z,0
2018-12-27T07:22:28.864Z,0
2018-12-27T07:23:31.293Z,0
2018-12-27T07:24:33.714Z,0
2018-12-27T07:25:35.763Z,0
2018-12-27T07:26:37.800Z,0
2018-12-27T07:27:39.834Z,0
2018-12-27T07:28:41.889Z,0
2018-12-27T07:29:43.922Z,0
2018-12-27T07:30:45.968Z,0
2018-12-27T07:31:48.023Z,0
2018-12-27T07:32:50.059Z,0
2018-12-27T07:33:52.095Z,0
2018-12-27T07:34:57.906Z,0
2018-12-27T07:35:59.962Z,0
2018-12-27T07:37:02.019Z,0
2018-12-27T07:38:04.079Z,0
2018-12-27T07:39:06.119Z,0
2018-12-27T07:40:08.553Z,0
2018-12-27T07:41:10.595Z,0
2018-12-27T07:42:12.649Z,0
2018-12-27T07:43:15.271Z,0
2018-12-27T07:44:17.994Z,0
2018-12-27T07:45:20.052Z,0
2018-12-27T07:46:22.100Z,1
2018-12-27T07:47:24.146Z,1
2018-12-27T07:48:26.197Z,1
2018-12-27T07:49:28.270Z,1
2018-12-27T07:50:30.391Z,1
2018-12-27T07:51:32.443Z,1
2018-12-27T07:52:34.785Z,1
2018-12-27T07:53:36.835Z,1
2018-12-27T07:54:38.931Z,1
2018-12-27T07:55:41.377Z,1
2018-12-27T07:56:43.409Z,1
2018-12-27T07:57:45.462Z,1
2018-12-27T07:58:47.557Z,1
2018-12-27T07:59:49.888Z,1
2018-12-27T08:00:51.926Z,2
2018-12-27T08:01:53.967Z,2
2018-12-27T08:02:56.029Z,2
2018-12-27T08:03:58.080Z,2
2018-12-27T08:05:05.684Z,2
2018-12-27T08:06:08.399Z,2
2018-12-27T08:07:10.485Z,2
2018-12-27T08:08:13.252Z,2
2018-12-27T08:09:15.294Z,2
2018-12-27T08:10:17.621Z,2
2018-12-27T08:11:19.672Z,2
2018-12-27T08:12:21.712Z,2
2018-12-27T08:13:23.758Z,2
2018-12-27T08:14:25.840Z,2
2018-12-27T08:15:27.959Z,2
2018-12-27T08:16:30.006Z,2
2018-12-27T08:17:32.058Z,2
2018-12-27T08:18:34.420Z,2
2018-12-27T08:19:36.468Z,3
2018-12-27T08:20:38.503Z,2
2018-12-27T08:21:40.553Z,3
2018-12-27T08:22:42.619Z,2
2018-12-27T08:23:45.054Z,2
2018-12-27T08:24:47.377Z,3
2018-12-27T08:25:49.428Z,3
2018-12-27T08:26:51.752Z,3
2018-12-27T08:27:53.821Z,3
2018-12-27T08:28:57.524Z,3
2018-12-27T08:29:59.570Z,3
2018-12-27T08:31:01.625Z,3
2018-12-27T08:32:03.751Z,3
2018-12-27T08:33:05.809Z,3
2018-12-27T08:34:07.855Z,3
2018-12-27T08:35:13.448Z,3
2018-12-27T08:36:15.486Z,3
2018-12-27T08:37:17.522Z,3
2018-12-27T08:38:19.634Z,3
2018-12-27T08:39:21.898Z,3
2018-12-27T08:40:24.194Z,3
2018-12-27T08:41:26.644Z,3
2018-12-27T08:42:28.788Z,3
2018-12-27T08:43:30.935Z,3
2018-12-27T08:44:33.064Z,3
2018-12-27T08:45:35.185Z,3
2018-12-27T08:46:37.324Z,3
2018-12-27T08:47:39.454Z,3
2018-12-27T08:48:41.618Z,3
2018-12-27T08:49:44.570Z,4
2018-12-27T08:50:46.993Z,4
2018-12-27T08:51:49.144Z,3
2018-12-27T08:52:51.271Z,3
2018-12-27T08:53:53.405Z,4
2018-12-27T08:54:55.567Z,4
2018-12-27T08:55:57.965Z,4
2018-12-27T08:57:00.105Z,4
2018-12-27T08:58:02.303Z,5
2018-12-27T08:59:04.745Z,4
2018-12-27T09:00:06.877Z,4
2018-12-27T09:01:09.289Z,4
2018-12-27T09:02:11.444Z,5
2018-12-27T09:03:13.589Z,5
2018-12-27T09:04:15.731Z,5
2018-12-27T09:05:20.982Z,5
2018-12-27T09:06:23.129Z,5
2018-12-27T09:07:25.658Z,5
2018-12-27T09:08:27.786Z,5
2018-12-27T09:09:29.915Z,5
2018-12-27T09:10:32.349Z,5
2018-12-27T09:11:34.493Z,5
2018-12-27T09:12:37.524Z,5
2018-12-27T09:13:40.046Z,5
2018-12-27T09:14:42.168Z,5
2018-12-27T09:15:44.301Z,5
2018-12-27T09:16:46.435Z,4
2018-12-27T09:17:48.584Z,4
2018-12-27T09:18:50.729Z,5
2018-12-27T09:19:52.874Z,4
2018-12-27T09:20:55.019Z,4
2018-12-27T09:21:57.444Z,4
2018-12-27T09:22:59.579Z,4
2018-12-27T09:24:01.723Z,4
2018-12-27T09:25:03.882Z,4
2018-12-27T09:26:06.023Z,4
2018-12-27T09:27:08.444Z,4
2018-12-27T09:28:10.575Z,4
2018-12-27T09:29:13.094Z,4
2018-12-27T09:30:15.226Z,4
2018-12-27T09:31:17.380Z,4
2018-12-27T09:32:19.547Z,4
2018-12-27T09:33:22.361Z,5
2018-12-27T09:34:24.520Z,5
2018-12-27T09:35:27.859Z,5
2018-12-27T09:36:30.010Z,5
2018-12-27T09:37:32.149Z,5
2018-12-27T09:38:34.291Z,5
2018-12-27T09:39:36.430Z,5
2018-12-27T09:40:38.578Z,5
2018-12-27T09:41:40.716Z,5
2018-12-27T09:42:42.872Z,5
2018-12-27T09:43:45.031Z,6
2018-12-27T09:44:47.185Z,6
2018-12-27T09:45:49.338Z,6
2018-12-27T09:46:51.504Z,6
2018-12-27T09:47:53.654Z,6
2018-12-27T09:48:55.789Z,6
2018-12-27T09:49:57.918Z,6
2018-12-27T09:51:00.065Z,6
2018-12-27T09:52:03.623Z,7
2018-12-27T09:53:05.765Z,7
2018-12-27T09:54:07.929Z,7
2018-12-27T09:55:10.037Z,6
2018-12-27T09:56:12.157Z,7
2018-12-27T09:57:14.296Z,7
2018-12-27T09:58:16.422Z,8
2018-12-27T09:59:19.252Z,7
2018-12-27T10:00:21.476Z,7
2018-12-27T10:01:23.617Z,8
2018-12-27T10:02:25.756Z,7
2018-12-27T10:03:28.349Z,7
2018-12-27T10:04:30.488Z,7
2018-12-27T10:05:35.678Z,7
2018-12-27T10:06:37.843Z,8
2018-12-27T10:07:40.005Z,8
2018-12-27T10:08:42.141Z,8
2018-12-27T10:09:44.283Z,8
2018-12-27T10:10:46.439Z,7
2018-12-27T10:11:48.585Z,8
2018-12-27T10:12:50.730Z,8
2018-12-27T10:13:52.853Z,7
2018-12-27T10:14:54.972Z,7
2018-12-27T10:15:57.116Z,7
2018-12-27T10:16:59.255Z,7
2018-12-27T10:18:01.397Z,7
2018-12-27T10:19:03.820Z,7
2018-12-27T10:20:05.959Z,7
2018-12-27T10:21:08.087Z,6
2018-12-27T10:22:10.291Z,7
2018-12-27T10:23:12.429Z,7
2018-12-27T10:24:14.573Z,6
2018-12-27T10:25:16.710Z,5
2018-12-27T10:26:18.889Z,6
2018-12-27T10:27:21.020Z,5
2018-12-27T10:28:23.321Z,5
2018-12-27T10:29:25.538Z,5
2018-12-27T10:30:27.684Z,6
2018-12-27T10:31:29.830Z,5
2018-12-27T10:32:31.979Z,6
2018-12-27T10:33:34.110Z,6
2018-12-27T10:34:36.245Z,7
2018-12-27T10:35:42.576Z,8
2018-12-27T10:36:45.372Z,8
2018-12-27T10:37:48.191Z,8
2018-12-27T10:38:50.334Z,9
2018-12-27T10:39:52.532Z,9
2018-12-27T10:40:54.674Z,10
2018-12-27T10:41:56.835Z,9
2018-12-27T10:42:58.963Z,10
2018-12-27T10:44:01.385Z,10
2018-12-27T10:45:03.516Z,9
2018-12-27T10:46:05.951Z,8
2018-12-27T10:47:08.084Z,7
2018-12-27T10:48:10.238Z,6
2018-12-27T10:49:12.380Z,7
2018-12-27T10:50:14.509Z,9
2018-12-27T10:51:16.627Z,8
2018-12-27T10:52:19.065Z,8
2018-12-27T10:53:21.289Z,8
2018-12-27T10:54:23.419Z,8
2018-12-27T10:55:25.545Z,8
2018-12-27T10:56:27.663Z,9
2018-12-27T10:57:30.106Z,10
2018-12-27T10:58:32.250Z,12
2018-12-27T10:59:34.413Z,12
2018-12-27T11:00:36.575Z,12
2018-12-27T11:01:38.753Z,12
2018-12-27T11:02:41.180Z,12
2018-12-27T11:03:43.313Z,9
2018-12-27T11:04:45.743Z,7
2018-12-27T11:05:50.256Z,7
2018-12-27T11:06:52.378Z,6
2018-12-27T11:07:54.532Z,6
2018-12-27T11:08:56.694Z,6
2018-12-27T11:09:59.133Z,7
2018-12-27T11:11:01.277Z,7
2018-12-27T11:12:03.796Z,6
2018-12-27T11:13:05.924Z,6
2018-12-27T11:14:08.093Z,6
2018-12-27T11:15:10.210Z,5
2018-12-27T11:16:12.629Z,6
2018-12-27T11:17:14.756Z,6
2018-12-27T11:18:16.903Z,7
2018-12-27T11:19:19.061Z,7
2018-12-27T11:20:21.185Z,8
2018-12-27T11:21:23.587Z,8
2018-12-27T11:22:25.761Z,9
2018-12-27T11:23:27.904Z,9
2018-12-27T11:24:30.349Z,8
2018-12-27T11:25:32.495Z,8
2018-12-27T11:26:34.639Z,8
2018-12-27T11:27:36.784Z,9
2018-12-27T11:28:38.942Z,8
2018-12-27T11:29:41.078Z,9
2018-12-27T11:30:43.213Z,9
2018-12-27T11:31:45.373Z,9
2018-12-27T11:32:47.790Z,9
2018-12-27T11:33:49.910Z,9
2018-12-27T11:34:52.029Z,9
2018-12-27T11:35:57.360Z,9
2018-12-27T11:36:59.492Z,9
2018-12-27T11:38:01.626Z,9
2018-12-27T11:39:03.774Z,8
2018-12-27T11:40:05.925Z,9
2018-12-27T11:41:08.732Z,8
2018-12-27T11:42:11.280Z,8
2018-12-27T11:43:13.739Z,8
2018-12-27T11:44:15.874Z,9
2018-12-27T11:45:18.012Z,8
2018-12-27T11:46:20.143Z,8
2018-12-27T11:47:22.287Z,8
2018-12-27T11:48:24.407Z,8
2018-12-27T11:49:26.569Z,7
2018-12-27T11:50:28.715Z,7
2018-12-27T11:51:30.860Z,7
2018-12-27T11:52:32.989Z,7
2018-12-27T11:53:35.131Z,6
2018-12-27T11:54:37.275Z,5
2018-12-27T11:55:39.413Z,5
2018-12-27T11:56:41.565Z,6
2018-12-27T11:57:43.742Z,5
2018-12-27T11:58:45.900Z,5
2018-12-27T11:59:48.043Z,5
2018-12-27T12:00:50.201Z,5
2018-12-27T12:01:52.363Z,4
2018-12-27T12:02:54.558Z,4
2018-12-27T12:03:56.695Z,4
2018-12-27T12:04:58.816Z,5
2018-12-27T12:06:05.076Z,5
2018-12-27T12:07:07.232Z,6
2018-12-27T12:08:09.446Z,7
2018-12-27T12:09:11.917Z,7
2018-12-27T12:10:14.083Z,7
2018-12-27T12:11:16.214Z,7
2018-12-27T12:12:18.361Z,7
2018-12-27T12:13:20.504Z,7
2018-12-27T12:14:22.648Z,7
2018-12-27T12:15:25.049Z,8
2018-12-27T12:16:27.195Z,7
2018-12-27T12:17:29.343Z,7
2018-12-27T12:18:31.463Z,7
2018-12-27T12:19:33.597Z,6
2018-12-27T12:20:37.736Z,7
2018-12-27T12:21:39.866Z,6
2018-12-27T12:22:42.008Z,6
2018-12-27T12:23:44.137Z,7
2018-12-27T12:24:46.554Z,7
2018-12-27T12:25:48.694Z,8
2018-12-27T12:26:50.834Z,8
2018-12-27T12:27:52.986Z,9
2018-12-27T12:28:55.121Z,9
2018-12-27T12:29:57.270Z,9
2018-12-27T12:30:59.430Z,9
2018-12-27T12:32:02.121Z,9
2018-12-27T12:33:04.250Z,9
2018-12-27T12:34:06.380Z,9
2018-12-27T12:35:08.526Z,9
2018-12-27T12:36:12.275Z,7
2018-12-27T12:37:15.626Z,6
2018-12-27T12:38:17.772Z,6
2018-12-27T12:39:19.929Z,6
2018-12-27T12:40:22.062Z,6
2018-12-27T12:41:24.205Z,6
2018-12-27T12:42:34.422Z,6
2018-12-27T12:43:36.940Z,6
2018-12-27T12:44:39.089Z,6
2018-12-27T12:45:41.245Z,6
2018-12-27T12:46:43.395Z,6
2018-12-27T12:47:45.556Z,5
2018-12-27T12:48:47.677Z,6
2018-12-27T12:49:49.821Z,5
2018-12-27T12:50:51.969Z,6
2018-12-27T12:51:54.450Z,6
2018-12-27T12:52:56.598Z,6
2018-12-27T12:53:58.762Z,6
2018-12-27T12:55:01.298Z,6
2018-12-27T12:56:03.434Z,6
2018-12-27T12:57:05.577Z,5
2018-12-27T12:58:07.737Z,5
2018-12-27T12:59:09.899Z,5
2018-12-27T13:00:12.032Z,5
2018-12-27T13:01:14.453Z,5
2018-12-27T13:02:16.583Z,5
2018-12-27T13:03:18.701Z,5
2018-12-27T13:04:20.844Z,5
2018-12-27T13:05:22.985Z,5
2018-12-27T13:06:25.131Z,5
2018-12-27T13:07:27.297Z,5
2018-12-27T13:08:29.436Z,5
2018-12-27T13:09:31.572Z,5
2018-12-27T13:10:34.024Z,5
2018-12-27T13:11:36.170Z,5
2018-12-27T13:12:38.305Z,5
2018-12-27T13:13:40.445Z,5
2018-12-27T13:14:42.579Z,5
2018-12-27T13:15:44.696Z,5
2018-12-27T13:16:46.826Z,5
2018-12-27T13:17:48.967Z,5
2018-12-27T13:18:51.112Z,5
2018-12-27T13:19:53.262Z,5
2018-12-27T13:20:55.417Z,5
2018-12-27T13:21:57.563Z,5
2018-12-27T13:22:59.985Z,5
2018-12-27T13:24:02.125Z,5
2018-12-27T13:25:04.292Z,5
2018-12-27T13:26:06.436Z,5
2018-12-27T13:27:08.595Z,5
2018-12-27T13:28:10.721Z,5
2018-12-27T13:29:12.865Z,5
2018-12-27T13:30:15.005Z,5
2018-12-27T13:31:17.163Z,5
2018-12-27T13:32:19.297Z,5
2018-12-27T13:33:22.101Z,5
2018-12-27T13:34:24.225Z,5
2018-12-27T13:35:26.368Z,5
2018-12-27T13:36:28.512Z,4
2018-12-27T13:37:30.652Z,4
2018-12-27T13:38:32.871Z,4
2018-12-27T13:39:35.375Z,4
2018-12-27T13:40:37.773Z,4
2018-12-27T13:41:39.915Z,4
2018-12-27T13:42:42.062Z,4
2018-12-27T13:43:44.215Z,3
2018-12-27T13:44:46.350Z,4
2018-12-27T13:45:48.482Z,4
2018-12-27T13:46:50.623Z,3
2018-12-27T13:47:54.790Z,4
2018-12-27T13:48:56.966Z,3
2018-12-27T13:49:59.111Z,3
2018-12-27T13:51:01.239Z,3
2018-12-27T13:52:03.653Z,3
2018-12-27T13:53:05.802Z,3
2018-12-27T13:54:07.950Z,3
2018-12-27T13:55:10.081Z,3
2018-12-27T13:56:12.232Z,3
2018-12-27T13:57:14.669Z,3
2018-12-27T13:58:16.854Z,3
2018-12-27T13:59:19.700Z,3
2018-12-27T14:00:21.820Z,3
2018-12-27T14:01:23.981Z,3
2018-12-27T14:02:26.149Z,3
2018-12-27T14:03:28.268Z,3
2018-12-27T14:04:30.416Z,3
2018-12-27T14:05:32.549Z,3
2018-12-27T14:06:34.672Z,3
2018-12-27T14:07:36.819Z,3
2018-12-27T14:08:38.949Z,3
2018-12-27T14:09:41.088Z,3
2018-12-27T14:10:43.219Z,2
2018-12-27T14:11:45.371Z,2
2018-12-27T14:12:47.503Z,2
2018-12-27T14:13:49.664Z,2
2018-12-27T14:14:52.189Z,2
2018-12-27T14:15:54.703Z,2
2018-12-27T14:16:56.848Z,2
2018-12-27T14:17:58.996Z,1
2018-12-27T14:19:01.597Z,1
2018-12-27T14:20:03.735Z,1
2018-12-27T14:21:05.895Z,1
2018-12-27T14:22:08.016Z,1
2018-12-27T14:23:10.147Z,1
2018-12-27T14:24:12.276Z,1
2018-12-27T14:25:14.420Z,1
2018-12-27T14:26:16.545Z,1
2018-12-27T14:27:18.687Z,1
2018-12-27T14:28:21.231Z,1
2018-12-27T14:29:23.369Z,1
2018-12-27T14:30:25.509Z,1
2018-12-27T14:31:27.654Z,1
2018-12-27T14:32:29.804Z,1
2018-12-27T14:33:31.951Z,1
2018-12-27T14:34:34.105Z,1
2018-12-27T14:35:36.265Z,1
2018-12-27T14:36:41.520Z,1
2018-12-27T14:37:43.689Z,1
2018-12-27T14:38:47.748Z,1
2018-12-27T14:39:49.894Z,0
2018-12-27T14:40:52.053Z,0
2018-12-27T14:41:54.189Z,0
2018-12-27T14:42:56.622Z,0
2018-12-27T14:43:58.750Z,0
2018-12-27T14:45:00.880Z,0
2018-12-27T14:46:03.004Z,0
2018-12-27T14:47:05.149Z,0
2018-12-27T14:48:07.295Z,0
2018-12-27T14:49:09.433Z,0
2018-12-27T14:50:11.581Z,0
2018-12-27T14:51:13.744Z,0
2018-12-27T14:52:15.915Z,0
2018-12-27T14:53:18.071Z,0
2018-12-27T14:54:20.207Z,0
2018-12-27T14:55:22.345Z,0
2018-12-27T14:56:24.487Z,0
2018-12-27T14:57:26.630Z,0
2018-12-27T14:58:29.042Z,0
2018-12-27T14:59:33.423Z,0
2018-12-27T15:00:35.860Z,0
2018-12-27T15:01:38.019Z,0
2018-12-27T15:02:40.153Z,0
2018-12-27T15:03:42.296Z,0
2018-12-27T15:04:44.443Z,0
2018-12-27T15:05:46.590Z,0
2018-12-27T15:06:50.523Z,0
2018-12-27T15:07:52.656Z,0
2018-12-27T15:08:54.807Z,0
2018-12-27T15:09:56.946Z,0
2018-12-27T15:10:59.104Z,0
2018-12-27T15:12:01.247Z,0
2018-12-27T15:13:03.387Z,0
2018-12-27T15:14:05.526Z,0
2018-12-27T15:15:07.690Z,0
2018-12-27T15:16:09.831Z,0
2018-12-27T15:17:11.971Z,0
2018-12-27T15:18:14.505Z,0
2018-12-27T15:19:16.635Z,0
2018-12-27T15:20:18.801Z,0
2018-12-27T15:21:20.955Z,0